sensor_id;sensor_type;location;lat;lon;timestamp;pressure;altitude;pressure_sealevel;temperature;humidity
57885;BME280;43703;51.060;-0.086;2022-08-06T00:00:19;101264.22;;;16.05;41.46
57885;BME280;43703;51.060;-0.086;2022-08-06T00:02:44;101265.28;;;16.34;43.11
57885;BME280;43703;51.060;-0.086;2022-08-06T00:05:10;101271.61;;;16.22;41.04
57885;BME280;43703;51.060;-0.086;2022-08-06T00:07:34;101273.13;;;16.44;42.12
57885;BME280;43703;51.060;-0.086;2022-08-06T00:09:59;101276.45;;;16.42;42.00
57885;BME280;43703;51.060;-0.086;2022-08-06T00:12:25;101278.17;;;16.31;42.12
57885;BME280;43703;51.060;-0.086;2022-08-06T00:14:49;101281.67;;;15.51;38.24
57885;BME280;43703;51.060;-0.086;2022-08-06T00:17:14;101284.45;;;16.42;43.42
57885;BME280;43703;51.060;-0.086;2022-08-06T00:19:39;101284.70;;;16.33;41.55
57885;BME280;43703;51.060;-0.086;2022-08-06T00:22:04;101289.33;;;16.20;40.95
57885;BME280;43703;51.060;-0.086;2022-08-06T00:24:29;101286.80;;;15.58;39.88
57885;BME280;43703;51.060;-0.086;2022-08-06T00:26:55;101288.85;;;16.19;42.31
57885;BME280;43703;51.060;-0.086;2022-08-06T00:29:19;101290.42;;;16.26;42.36
57885;BME280;43703;51.060;-0.086;2022-08-06T00:31:44;101289.06;;;16.08;40.64
57885;BME280;43703;51.060;-0.086;2022-08-06T00:34:10;101290.66;;;16.39;42.89
57885;BME280;43703;51.060;-0.086;2022-08-06T00:36:35;101293.59;;;16.02;42.64
57885;BME280;43703;51.060;-0.086;2022-08-06T00:39:05;101296.44;;;16.13;43.14
57885;BME280;43703;51.060;-0.086;2022-08-06T00:41:26;101297.39;;;16.17;42.62
57885;BME280;43703;51.060;-0.086;2022-08-06T00:43:51;101298.77;;;16.11;41.20
57885;BME280;43703;51.060;-0.086;2022-08-06T00:46:15;101299.37;;;16.31;41.95
57885;BME280;43703;51.060;-0.086;2022-08-06T00:48:40;101298.99;;;16.18;44.35
57885;BME280;43703;51.060;-0.086;2022-08-06T00:51:06;101297.24;;;16.15;42.76
57885;BME280;43703;51.060;-0.086;2022-08-06T00:53:31;101300.57;;;16.05;41.51
57885;BME280;43703;51.060;-0.086;2022-08-06T00:55:56;101305.30;;;16.21;41.98
57885;BME280;43703;51.060;-0.086;2022-08-06T00:58:21;101305.36;;;16.21;41.60
57885;BME280;43703;51.060;-0.086;2022-08-06T01:00:46;101309.54;;;16.06;43.74
57885;BME280;43703;51.060;-0.086;2022-08-06T01:03:11;101307.78;;;15.90;41.17
57885;BME280;43703;51.060;-0.086;2022-08-06T01:05:36;101305.85;;;16.01;42.68
57885;BME280;43703;51.060;-0.086;2022-08-06T01:08:01;101307.96;;;15.95;41.87
57885;BME280;43703;51.060;-0.086;2022-08-06T01:10:26;101309.29;;;15.93;42.42
57885;BME280;43703;51.060;-0.086;2022-08-06T01:12:51;101307.27;;;16.01;42.93
57885;BME280;43703;51.060;-0.086;2022-08-06T01:15:16;101310.42;;;15.83;41.78
57885;BME280;43703;51.060;-0.086;2022-08-06T01:17:45;101314.13;;;15.81;40.84
57885;BME280;43703;51.060;-0.086;2022-08-06T01:20:16;101315.24;;;15.83;42.52
57885;BME280;43703;51.060;-0.086;2022-08-06T01:22:42;101319.11;;;15.24;40.21
57885;BME280;43703;51.060;-0.086;2022-08-06T01:25:09;101325.11;;;15.62;43.24
57885;BME280;43703;51.060;-0.086;2022-08-06T01:27:33;101321.48;;;15.94;42.87
57885;BME280;43703;51.060;-0.086;2022-08-06T01:29:51;101324.87;;;15.50;40.66
57885;BME280;43703;51.060;-0.086;2022-08-06T01:32:15;101320.97;;;16.47;43.23
57885;BME280;43703;51.060;-0.086;2022-08-06T01:34:40;101322.69;;;16.14;44.39
57885;BME280;43703;51.060;-0.086;2022-08-06T01:37:08;101323.20;;;15.91;41.97
57885;BME280;43703;51.060;-0.086;2022-08-06T01:39:27;101322.74;;;15.95;40.81
57885;BME280;43703;51.060;-0.086;2022-08-06T01:41:53;101323.65;;;16.01;41.64
57885;BME280;43703;51.060;-0.086;2022-08-06T01:44:19;101322.98;;;15.89;41.09
57885;BME280;43703;51.060;-0.086;2022-08-06T01:46:45;101321.01;;;15.96;42.58
57885;BME280;43703;51.060;-0.086;2022-08-06T01:49:08;101323.82;;;15.86;44.12
57885;BME280;43703;51.060;-0.086;2022-08-06T01:51:33;101326.31;;;15.99;42.14
57885;BME280;43703;51.060;-0.086;2022-08-06T01:53:59;101324.26;;;15.96;43.19
57885;BME280;43703;51.060;-0.086;2022-08-06T01:56:23;101322.31;;;15.74;41.88
57885;BME280;43703;51.060;-0.086;2022-08-06T01:58:49;101318.70;;;15.69;42.40
57885;BME280;43703;51.060;-0.086;2022-08-06T02:01:14;101314.83;;;15.52;43.39
57885;BME280;43703;51.060;-0.086;2022-08-06T02:03:42;101316.21;;;15.76;42.10
57885;BME280;43703;51.060;-0.086;2022-08-06T02:06:04;101315.51;;;15.27;42.37
57885;BME280;43703;51.060;-0.086;2022-08-06T02:08:32;101312.20;;;15.67;43.62
57885;BME280;43703;51.060;-0.086;2022-08-06T02:10:53;101312.77;;;15.25;42.94
57885;BME280;43703;51.060;-0.086;2022-08-06T02:13:21;101309.83;;;15.40;43.71
57885;BME280;43703;51.060;-0.086;2022-08-06T02:15:44;101305.12;;;15.49;45.16
57885;BME280;43703;51.060;-0.086;2022-08-06T02:18:09;101301.32;;;15.29;44.07
57885;BME280;43703;51.060;-0.086;2022-08-06T02:20:35;101304.62;;;15.60;42.68
57885;BME280;43703;51.060;-0.086;2022-08-06T02:23:00;101301.94;;;15.22;42.37
57885;BME280;43703;51.060;-0.086;2022-08-06T02:25:23;101297.73;;;15.56;43.83
57885;BME280;43703;51.060;-0.086;2022-08-06T02:27:51;101298.70;;;15.27;44.98
57885;BME280;43703;51.060;-0.086;2022-08-06T02:30:13;101297.90;;;15.14;43.10
57885;BME280;43703;51.060;-0.086;2022-08-06T02:32:38;101300.30;;;14.91;43.50
57885;BME280;43703;51.060;-0.086;2022-08-06T02:35:04;101298.83;;;15.02;44.72
57885;BME280;43703;51.060;-0.086;2022-08-06T02:37:31;101302.42;;;15.11;43.97
57885;BME280;43703;51.060;-0.086;2022-08-06T02:39:57;101304.32;;;14.98;45.31
57885;BME280;43703;51.060;-0.086;2022-08-06T02:42:24;101305.83;;;15.00;45.16
57885;BME280;43703;51.060;-0.086;2022-08-06T02:44:50;101305.12;;;15.44;45.48
57885;BME280;43703;51.060;-0.086;2022-08-06T02:47:12;101310.87;;;15.26;43.98
57885;BME280;43703;51.060;-0.086;2022-08-06T02:49:37;101310.90;;;14.72;45.34
57885;BME280;43703;51.060;-0.086;2022-08-06T02:52:03;101312.97;;;15.03;45.62
57885;BME280;43703;51.060;-0.086;2022-08-06T02:54:31;101312.98;;;15.22;45.58
57885;BME280;43703;51.060;-0.086;2022-08-06T02:56:51;101314.32;;;15.34;46.64
57885;BME280;43703;51.060;-0.086;2022-08-06T02:59:20;101318.26;;;14.71;43.68
57885;BME280;43703;51.060;-0.086;2022-08-06T03:01:43;101318.82;;;15.12;46.69
57885;BME280;43703;51.060;-0.086;2022-08-06T03:04:05;101322.03;;;15.12;46.61
57885;BME280;43703;51.060;-0.086;2022-08-06T03:06:32;101322.99;;;14.89;45.73
57885;BME280;43703;51.060;-0.086;2022-08-06T03:08:55;101320.43;;;15.11;45.93
57885;BME280;43703;51.060;-0.086;2022-08-06T03:11:20;101316.95;;;15.09;46.13
57885;BME280;43703;51.060;-0.086;2022-08-06T03:13:45;101318.53;;;14.64;47.42
57885;BME280;43703;51.060;-0.086;2022-08-06T03:16:10;101323.05;;;15.08;45.41
57885;BME280;43703;51.060;-0.086;2022-08-06T03:18:36;101323.08;;;15.18;46.75
57885;BME280;43703;51.060;-0.086;2022-08-06T03:21:01;101318.34;;;15.06;45.68
57885;BME280;43703;51.060;-0.086;2022-08-06T03:23:25;101319.59;;;14.83;45.48
57885;BME280;43703;51.060;-0.086;2022-08-06T03:25:50;101322.60;;;14.79;46.33
57885;BME280;43703;51.060;-0.086;2022-08-06T03:28:16;101323.44;;;14.95;46.30
57885;BME280;43703;51.060;-0.086;2022-08-06T03:30:41;101323.33;;;14.96;45.92
57885;BME280;43703;51.060;-0.086;2022-08-06T03:33:08;101319.92;;;14.81;45.18
57885;BME280;43703;51.060;-0.086;2022-08-06T03:35:33;101322.48;;;14.90;48.34
57885;BME280;43703;51.060;-0.086;2022-08-06T03:37:56;101321.79;;;14.80;45.93
57885;BME280;43703;51.060;-0.086;2022-08-06T03:40:21;101324.13;;;14.67;44.82
57885;BME280;43703;51.060;-0.086;2022-08-06T03:42:46;101326.90;;;14.69;46.87
57885;BME280;43703;51.060;-0.086;2022-08-06T03:45:11;101327.79;;;14.64;47.20
57885;BME280;43703;51.060;-0.086;2022-08-06T03:47:41;101324.96;;;14.69;46.54
57885;BME280;43703;51.060;-0.086;2022-08-06T03:50:08;101328.15;;;14.42;46.09
57885;BME280;43703;51.060;-0.086;2022-08-06T03:52:30;101330.47;;;14.63;46.52
57885;BME280;43703;51.060;-0.086;2022-08-06T03:54:55;101332.43;;;14.67;46.32
57885;BME280;43703;51.060;-0.086;2022-08-06T03:57:24;101332.92;;;14.73;46.41
57885;BME280;43703;51.060;-0.086;2022-08-06T03:59:45;101332.27;;;14.77;46.64
57885;BME280;43703;51.060;-0.086;2022-08-06T04:02:09;101334.16;;;14.72;46.82
57885;BME280;43703;51.060;-0.086;2022-08-06T04:04:34;101337.44;;;14.50;45.87
57885;BME280;43703;51.060;-0.086;2022-08-06T04:06:59;101337.11;;;14.51;47.00
57885;BME280;43703;51.060;-0.086;2022-08-06T04:09:31;101340.01;;;14.96;46.75
57885;BME280;43703;51.060;-0.086;2022-08-06T04:11:49;101334.85;;;14.52;47.36
57885;BME280;43703;51.060;-0.086;2022-08-06T04:14:14;101336.39;;;14.39;47.29
57885;BME280;43703;51.060;-0.086;2022-08-06T04:16:39;101340.86;;;14.30;46.24
57885;BME280;43703;51.060;-0.086;2022-08-06T04:19:05;101342.70;;;14.22;46.36
57885;BME280;43703;51.060;-0.086;2022-08-06T04:21:29;101345.39;;;14.29;46.97
57885;BME280;43703;51.060;-0.086;2022-08-06T04:23:54;101344.33;;;14.31;46.42
57885;BME280;43703;51.060;-0.086;2022-08-06T04:26:23;101343.66;;;14.27;47.10
57885;BME280;43703;51.060;-0.086;2022-08-06T04:28:46;101346.23;;;14.13;48.07
57885;BME280;43703;51.060;-0.086;2022-08-06T04:31:09;101348.74;;;14.16;47.78
57885;BME280;43703;51.060;-0.086;2022-08-06T04:33:36;101350.09;;;14.20;47.35
57885;BME280;43703;51.060;-0.086;2022-08-06T04:36:00;101347.49;;;14.16;47.72
57885;BME280;43703;51.060;-0.086;2022-08-06T04:38:25;101348.26;;;14.15;47.96
57885;BME280;43703;51.060;-0.086;2022-08-06T04:40:51;101351.17;;;14.31;47.79
57885;BME280;43703;51.060;-0.086;2022-08-06T04:43:17;101351.73;;;13.97;47.93
57885;BME280;43703;51.060;-0.086;2022-08-06T04:45:42;101352.00;;;13.93;48.14
57885;BME280;43703;51.060;-0.086;2022-08-06T04:48:09;101355.31;;;14.20;47.44
57885;BME280;43703;51.060;-0.086;2022-08-06T04:50:33;101357.92;;;13.99;48.59
57885;BME280;43703;51.060;-0.086;2022-08-06T04:53:04;101357.67;;;13.96;48.14
57885;BME280;43703;51.060;-0.086;2022-08-06T04:55:23;101355.99;;;13.91;48.87
57885;BME280;43703;51.060;-0.086;2022-08-06T04:57:48;101360.21;;;14.21;49.28
57885;BME280;43703;51.060;-0.086;2022-08-06T05:00:14;101366.43;;;13.89;48.28
57885;BME280;43703;51.060;-0.086;2022-08-06T05:02:38;101365.16;;;13.72;49.31
57885;BME280;43703;51.060;-0.086;2022-08-06T05:05:05;101369.38;;;13.96;49.49
57885;BME280;43703;51.060;-0.086;2022-08-06T05:07:30;101367.13;;;13.61;48.66
57885;BME280;43703;51.060;-0.086;2022-08-06T05:09:54;101365.05;;;13.93;49.89
57885;BME280;43703;51.060;-0.086;2022-08-06T05:12:25;101366.70;;;13.88;49.91
57885;BME280;43703;51.060;-0.086;2022-08-06T05:14:52;101366.35;;;13.57;48.77
57885;BME280;43703;51.060;-0.086;2022-08-06T05:17:14;101367.46;;;13.40;48.87
57885;BME280;43703;51.060;-0.086;2022-08-06T05:19:41;101364.45;;;13.66;49.59
57885;BME280;43703;51.060;-0.086;2022-08-06T05:22:02;101366.40;;;13.47;49.87
57885;BME280;43703;51.060;-0.086;2022-08-06T05:24:27;101370.74;;;13.59;49.69
57885;BME280;43703;51.060;-0.086;2022-08-06T05:26:51;101376.46;;;13.68;49.81
57885;BME280;43703;51.060;-0.086;2022-08-06T05:29:19;101380.57;;;13.74;49.49
57885;BME280;43703;51.060;-0.086;2022-08-06T05:31:42;101380.65;;;13.51;48.50
57885;BME280;43703;51.060;-0.086;2022-08-06T05:34:11;101383.32;;;13.27;47.87
57885;BME280;43703;51.060;-0.086;2022-08-06T05:36:33;101384.11;;;13.63;50.23
57885;BME280;43703;51.060;-0.086;2022-08-06T05:38:58;101387.07;;;13.81;50.47
57885;BME280;43703;51.060;-0.086;2022-08-06T05:41:23;101388.62;;;13.75;49.73
57885;BME280;43703;51.060;-0.086;2022-08-06T05:43:49;101392.24;;;13.74;48.67
57885;BME280;43703;51.060;-0.086;2022-08-06T05:46:15;101392.70;;;13.64;49.12
57885;BME280;43703;51.060;-0.086;2022-08-06T05:48:44;101391.41;;;13.81;48.42
57885;BME280;43703;51.060;-0.086;2022-08-06T05:51:09;101388.72;;;14.21;49.89
57885;BME280;43703;51.060;-0.086;2022-08-06T05:53:33;101395.36;;;13.86;49.63
57885;BME280;43703;51.060;-0.086;2022-08-06T05:55:59;101398.76;;;14.31;50.32
57885;BME280;43703;51.060;-0.086;2022-08-06T05:58:31;101407.23;;;14.32;50.31
57885;BME280;43703;51.060;-0.086;2022-08-06T06:00:48;101407.76;;;14.19;48.43
57885;BME280;43703;51.060;-0.086;2022-08-06T06:03:15;101407.68;;;14.25;48.30
57885;BME280;43703;51.060;-0.086;2022-08-06T06:05:38;101404.07;;;14.11;49.63
57885;BME280;43703;51.060;-0.086;2022-08-06T06:08:04;101405.84;;;14.32;50.67
57885;BME280;43703;51.060;-0.086;2022-08-06T06:10:28;101407.36;;;14.56;48.26
57885;BME280;43703;51.060;-0.086;2022-08-06T06:12:54;101408.88;;;14.32;49.81
57885;BME280;43703;51.060;-0.086;2022-08-06T06:15:19;101409.82;;;14.80;49.31
57885;BME280;43703;51.060;-0.086;2022-08-06T06:17:57;101412.74;;;14.91;49.33
57885;BME280;43703;51.060;-0.086;2022-08-06T06:20:14;101412.59;;;15.17;49.23
57885;BME280;43703;51.060;-0.086;2022-08-06T06:22:39;101413.32;;;14.53;47.23
57885;BME280;43703;51.060;-0.086;2022-08-06T06:25:04;101415.39;;;14.82;49.12
57885;BME280;43703;51.060;-0.086;2022-08-06T06:29:57;101423.79;;;14.91;49.64
57885;BME280;43703;51.060;-0.086;2022-08-06T06:32:19;101422.91;;;15.05;49.04
57885;BME280;43703;51.060;-0.086;2022-08-06T06:34:50;101424.61;;;14.92;48.40
57885;BME280;43703;51.060;-0.086;2022-08-06T06:37:14;101429.67;;;15.68;51.12
57885;BME280;43703;51.060;-0.086;2022-08-06T06:39:38;101425.61;;;16.02;47.42
57885;BME280;43703;51.060;-0.086;2022-08-06T06:42:03;101429.67;;;16.41;45.98
57885;BME280;43703;51.060;-0.086;2022-08-06T06:44:32;101425.99;;;16.69;42.33
57885;BME280;43703;51.060;-0.086;2022-08-06T06:46:56;101423.65;;;17.20;40.91
57885;BME280;43703;51.060;-0.086;2022-08-06T06:49:18;101429.79;;;19.46;43.01
57885;BME280;43703;51.060;-0.086;2022-08-06T06:51:43;101432.28;;;20.25;40.22
57885;BME280;43703;51.060;-0.086;2022-08-06T06:54:07;101435.64;;;20.20;36.60
57885;BME280;43703;51.060;-0.086;2022-08-06T06:56:35;101436.50;;;21.54;37.90
57885;BME280;43703;51.060;-0.086;2022-08-06T06:59:01;101439.57;;;22.42;36.93
57885;BME280;43703;51.060;-0.086;2022-08-06T07:01:22;101440.16;;;21.99;34.53
57885;BME280;43703;51.060;-0.086;2022-08-06T07:03:49;101442.62;;;23.11;33.42
57885;BME280;43703;51.060;-0.086;2022-08-06T07:06:15;101441.37;;;24.34;33.16
57885;BME280;43703;51.060;-0.086;2022-08-06T07:08:45;101444.54;;;25.06;32.17
57885;BME280;43703;51.060;-0.086;2022-08-06T07:11:05;101447.17;;;24.55;32.71
57885;BME280;43703;51.060;-0.086;2022-08-06T07:13:30;101448.16;;;25.58;33.00
57885;BME280;43703;51.060;-0.086;2022-08-06T07:15:56;101455.82;;;26.08;32.28
57885;BME280;43703;51.060;-0.086;2022-08-06T07:18:21;101459.40;;;26.92;30.03
57885;BME280;43703;51.060;-0.086;2022-08-06T07:20:46;101462.70;;;27.13;28.49
57885;BME280;43703;51.060;-0.086;2022-08-06T07:23:11;101461.68;;;27.64;27.58
57885;BME280;43703;51.060;-0.086;2022-08-06T07:25:40;101464.30;;;27.51;28.22
57885;BME280;43703;51.060;-0.086;2022-08-06T07:28:03;101465.95;;;28.02;28.41
57885;BME280;43703;51.060;-0.086;2022-08-06T07:30:27;101460.90;;;27.45;29.06
57885;BME280;43703;51.060;-0.086;2022-08-06T07:32:52;101461.94;;;27.16;28.47
57885;BME280;43703;51.060;-0.086;2022-08-06T07:35:19;101464.72;;;28.02;27.47
57885;BME280;43703;51.060;-0.086;2022-08-06T07:37:49;101465.13;;;28.14;26.64
57885;BME280;43703;51.060;-0.086;2022-08-06T07:40:12;101470.14;;;27.76;28.15
57885;BME280;43703;51.060;-0.086;2022-08-06T07:42:36;101468.23;;;27.90;27.02
57885;BME280;43703;51.060;-0.086;2022-08-06T07:45:01;101468.48;;;28.50;26.05
57885;BME280;43703;51.060;-0.086;2022-08-06T07:47:27;101465.36;;;28.93;25.76
57885;BME280;43703;51.060;-0.086;2022-08-06T07:49:54;101467.66;;;28.99;27.56
57885;BME280;43703;51.060;-0.086;2022-08-06T07:52:16;101464.61;;;28.69;25.91
57885;BME280;43703;51.060;-0.086;2022-08-06T07:54:40;101461.71;;;29.12;25.91
57885;BME280;43703;51.060;-0.086;2022-08-06T07:57:06;101460.54;;;29.12;26.15
57885;BME280;43703;51.060;-0.086;2022-08-06T07:59:31;101460.87;;;29.79;27.35
57885;BME280;43703;51.060;-0.086;2022-08-06T08:01:57;101463.19;;;30.16;24.79
57885;BME280;43703;51.060;-0.086;2022-08-06T08:04:22;101462.36;;;29.99;23.54
57885;BME280;43703;51.060;-0.086;2022-08-06T08:06:47;101457.67;;;29.77;21.01
57885;BME280;43703;51.060;-0.086;2022-08-06T08:09:16;101459.29;;;30.09;23.15
57885;BME280;43703;51.060;-0.086;2022-08-06T08:11:40;101459.57;;;29.28;23.63
57885;BME280;43703;51.060;-0.086;2022-08-06T08:14:05;101464.09;;;28.85;28.34
57885;BME280;43703;51.060;-0.086;2022-08-06T08:16:30;101468.26;;;29.88;25.68
57885;BME280;43703;51.060;-0.086;2022-08-06T08:18:55;101469.96;;;29.60;24.01
57885;BME280;43703;51.060;-0.086;2022-08-06T08:21:21;101470.90;;;30.95;22.36
57885;BME280;43703;51.060;-0.086;2022-08-06T08:23:46;101473.53;;;29.93;25.87
57885;BME280;43703;51.060;-0.086;2022-08-06T08:26:11;101475.84;;;27.11;25.52
57885;BME280;43703;51.060;-0.086;2022-08-06T08:28:36;101473.77;;;30.17;22.08
57885;BME280;43703;51.060;-0.086;2022-08-06T08:31:01;101473.44;;;30.91;22.90
57885;BME280;43703;51.060;-0.086;2022-08-06T08:33:27;101475.11;;;30.30;24.77
57885;BME280;43703;51.060;-0.086;2022-08-06T08:35:52;101477.73;;;29.90;24.15
57885;BME280;43703;51.060;-0.086;2022-08-06T08:38:18;101477.76;;;30.90;24.69
57885;BME280;43703;51.060;-0.086;2022-08-06T08:40:47;101477.83;;;30.67;25.22
57885;BME280;43703;51.060;-0.086;2022-08-06T08:43:12;101476.81;;;30.95;23.83
57885;BME280;43703;51.060;-0.086;2022-08-06T08:45:36;101477.54;;;30.22;20.52
57885;BME280;43703;51.060;-0.086;2022-08-06T08:48:01;101475.28;;;32.07;21.72
57885;BME280;43703;51.060;-0.086;2022-08-06T08:50:28;101477.45;;;31.75;22.37
57885;BME280;43703;51.060;-0.086;2022-08-06T08:52:52;101474.06;;;30.93;24.22
57885;BME280;43703;51.060;-0.086;2022-08-06T08:55:16;101475.84;;;31.52;22.33
57885;BME280;43703;51.060;-0.086;2022-08-06T08:57:41;101477.04;;;32.02;20.61
57885;BME280;43703;51.060;-0.086;2022-08-06T09:00:07;101476.51;;;32.33;21.23
57885;BME280;43703;51.060;-0.086;2022-08-06T09:02:32;101476.38;;;31.11;21.87
57885;BME280;43703;51.060;-0.086;2022-08-06T09:04:58;101474.55;;;30.91;23.69
57885;BME280;43703;51.060;-0.086;2022-08-06T09:07:22;101476.90;;;30.52;22.09
57885;BME280;43703;51.060;-0.086;2022-08-06T09:09:48;101479.96;;;31.98;22.43
57885;BME280;43703;51.060;-0.086;2022-08-06T09:12:13;101478.94;;;31.73;22.31
57885;BME280;43703;51.060;-0.086;2022-08-06T09:14:38;101475.14;;;32.12;20.92
57885;BME280;43703;51.060;-0.086;2022-08-06T09:17:06;101480.04;;;32.83;21.14
57885;BME280;43703;51.060;-0.086;2022-08-06T09:19:29;101474.52;;;30.31;23.93
57885;BME280;43703;51.060;-0.086;2022-08-06T09:21:54;101474.11;;;31.29;21.08
57885;BME280;43703;51.060;-0.086;2022-08-06T09:24:19;101478.64;;;32.05;21.02
57885;BME280;43703;51.060;-0.086;2022-08-06T09:29:20;101478.55;;;32.50;20.46
57885;BME280;43703;51.060;-0.086;2022-08-06T09:31:36;101476.46;;;31.53;18.17
57885;BME280;43703;51.060;-0.086;2022-08-06T09:34:03;101475.99;;;31.62;22.62
57885;BME280;43703;51.060;-0.086;2022-08-06T09:36:27;101481.93;;;32.31;21.21
57885;BME280;43703;51.060;-0.086;2022-08-06T09:38:54;101479.69;;;31.18;19.84
57885;BME280;43703;51.060;-0.086;2022-08-06T09:41:19;101479.28;;;32.60;20.36
57885;BME280;43703;51.060;-0.086;2022-08-06T09:43:44;101478.29;;;31.48;21.88
57885;BME280;43703;51.060;-0.086;2022-08-06T09:46:08;101482.08;;;33.13;19.27
57885;BME280;43703;51.060;-0.086;2022-08-06T09:48:33;101475.96;;;33.81;19.94
57885;BME280;43703;51.060;-0.086;2022-08-06T09:50:58;101473.76;;;33.70;18.84
57885;BME280;43703;51.060;-0.086;2022-08-06T09:53:23;101472.97;;;31.45;17.13
57885;BME280;43703;51.060;-0.086;2022-08-06T09:55:50;101475.96;;;33.55;19.84
57885;BME280;43703;51.060;-0.086;2022-08-06T09:58:14;101475.10;;;33.70;16.58
57885;BME280;43703;51.060;-0.086;2022-08-06T10:00:39;101477.86;;;33.65;18.27
57885;BME280;43703;51.060;-0.086;2022-08-06T10:03:06;101476.38;;;34.87;15.34
57885;BME280;43703;51.060;-0.086;2022-08-06T10:05:30;101481.35;;;34.21;16.13
57885;BME280;43703;51.060;-0.086;2022-08-06T10:08:03;101477.87;;;34.63;16.29
57885;BME280;43703;51.060;-0.086;2022-08-06T10:12:44;101474.63;;;34.42;15.31
57885;BME280;43703;51.060;-0.086;2022-08-06T10:15:09;101476.11;;;33.19;15.58
57885;BME280;43703;51.060;-0.086;2022-08-06T10:17:35;101470.41;;;33.24;15.78
57885;BME280;43703;51.060;-0.086;2022-08-06T10:20:05;101467.78;;;32.23;17.71
57885;BME280;43703;51.060;-0.086;2022-08-06T10:22:25;101464.43;;;31.55;16.27
57885;BME280;43703;51.060;-0.086;2022-08-06T10:24:51;101471.19;;;32.99;18.18
57885;BME280;43703;51.060;-0.086;2022-08-06T10:27:19;101475.46;;;33.37;19.21
57885;BME280;43703;51.060;-0.086;2022-08-06T10:29:43;101472.54;;;32.83;20.79
57885;BME280;43703;51.060;-0.086;2022-08-06T10:32:07;101472.43;;;31.92;18.89
57885;BME280;43703;51.060;-0.086;2022-08-06T10:34:32;101471.04;;;33.20;19.38
57885;BME280;43703;51.060;-0.086;2022-08-06T10:37:00;101468.89;;;33.23;18.64
57885;BME280;43703;51.060;-0.086;2022-08-06T10:39:27;101468.45;;;34.57;14.83
57885;BME280;43703;51.060;-0.086;2022-08-06T10:41:47;101471.47;;;33.46;14.97
57885;BME280;43703;51.060;-0.086;2022-08-06T10:44:12;101470.64;;;33.53;16.29
57885;BME280;43703;51.060;-0.086;2022-08-06T10:46:38;101460.36;;;30.35;18.89
57885;BME280;43703;51.060;-0.086;2022-08-06T10:49:05;101457.94;;;29.49;21.50
57885;BME280;43703;51.060;-0.086;2022-08-06T10:51:28;101457.22;;;29.10;21.42
57885;BME280;43703;51.060;-0.086;2022-08-06T10:53:54;101458.06;;;30.53;21.75
57885;BME280;43703;51.060;-0.086;2022-08-06T10:56:19;101455.46;;;31.18;19.16
57885;BME280;43703;51.060;-0.086;2022-08-06T10:58:44;101458.35;;;32.94;19.14
57885;BME280;43703;51.060;-0.086;2022-08-06T11:03:51;101455.87;;;33.50;16.14
57885;BME280;43703;51.060;-0.086;2022-08-06T11:06:10;101453.85;;;33.26;15.50
57885;BME280;43703;51.060;-0.086;2022-08-06T11:08:38;101450.42;;;30.20;16.69
57885;BME280;43703;51.060;-0.086;2022-08-06T11:13:29;101454.46;;;32.06;17.07
57885;BME280;43703;51.060;-0.086;2022-08-06T11:15:41;101448.84;;;34.18;14.40
57885;BME280;43703;51.060;-0.086;2022-08-06T11:18:08;101444.94;;;31.87;18.46
57885;BME280;43703;51.060;-0.086;2022-08-06T11:20:37;101442.19;;;30.23;15.72
57885;BME280;43703;51.060;-0.086;2022-08-06T11:22:56;101441.96;;;31.90;19.42
57885;BME280;43703;51.060;-0.086;2022-08-06T11:27:50;101439.22;;;32.39;17.96
57885;BME280;43703;51.060;-0.086;2022-08-06T11:30:13;101440.68;;;32.93;16.17
57885;BME280;43703;51.060;-0.086;2022-08-06T11:32:43;101442.11;;;34.01;16.27
57885;BME280;43703;51.060;-0.086;2022-08-06T11:47:15;101434.08;;;33.07;16.37
57885;BME280;43703;51.060;-0.086;2022-08-06T11:49:36;101430.49;;;30.83;17.82
57885;BME280;43703;51.060;-0.086;2022-08-06T11:52:00;101430.42;;;31.79;18.99
57885;BME280;43703;51.060;-0.086;2022-08-06T11:54:27;101424.82;;;29.53;15.72
57885;BME280;43703;51.060;-0.086;2022-08-06T11:59:16;101420.99;;;29.28;20.17
57885;BME280;43703;51.060;-0.086;2022-08-06T12:01:45;101417.84;;;28.97;18.83
57885;BME280;43703;51.060;-0.086;2022-08-06T12:04:06;101416.84;;;29.94;19.66
57885;BME280;43703;51.060;-0.086;2022-08-06T12:06:31;101418.71;;;31.87;19.05
57885;BME280;43703;51.060;-0.086;2022-08-06T12:09:05;101417.04;;;31.38;16.63
57885;BME280;43703;51.060;-0.086;2022-08-06T12:13:46;101415.44;;;31.69;17.55
57885;BME280;43703;51.060;-0.086;2022-08-06T12:18:38;101406.90;;;27.08;19.28
57885;BME280;43703;51.060;-0.086;2022-08-06T12:21:08;101401.86;;;26.70;19.08
57885;BME280;43703;51.060;-0.086;2022-08-06T12:23:27;101399.89;;;25.65;18.89
57885;BME280;43703;51.060;-0.086;2022-08-06T12:25:54;101405.57;;;25.76;20.12
57885;BME280;43703;51.060;-0.086;2022-08-06T12:28:17;101407.50;;;27.64;19.30
57885;BME280;43703;51.060;-0.086;2022-08-06T12:30:43;101408.40;;;27.02;19.88
57885;BME280;43703;51.060;-0.086;2022-08-06T12:33:08;101410.40;;;27.68;19.39
57885;BME280;43703;51.060;-0.086;2022-08-06T12:35:33;101412.34;;;28.05;18.18
57885;BME280;43703;51.060;-0.086;2022-08-06T12:37:58;101403.90;;;25.17;19.83
57885;BME280;43703;51.060;-0.086;2022-08-06T12:40:23;101402.31;;;26.14;17.50
57885;BME280;43703;51.060;-0.086;2022-08-06T12:42:48;101400.47;;;23.58;21.17
57885;BME280;43703;51.060;-0.086;2022-08-06T12:45:19;101398.45;;;24.88;19.52
57885;BME280;43703;51.060;-0.086;2022-08-06T12:47:38;101395.79;;;26.16;20.37
57885;BME280;43703;51.060;-0.086;2022-08-06T12:52:28;101392.00;;;25.55;20.07
57885;BME280;43703;51.060;-0.086;2022-08-06T12:54:54;101388.69;;;25.82;20.40
57885;BME280;43703;51.060;-0.086;2022-08-06T12:57:20;101388.46;;;25.48;21.50
57885;BME280;43703;51.060;-0.086;2022-08-06T12:59:44;101392.13;;;24.57;19.95
57885;BME280;43703;51.060;-0.086;2022-08-06T13:02:09;101391.38;;;24.24;19.18
57885;BME280;43703;51.060;-0.086;2022-08-06T13:04:34;101382.47;;;25.33;20.67